Terminal Aerodrome Forecast
Issued by NWS

Home | Current Version | Previous Version | Text Only | Print | Product List | Glossary On
Versions: 1 2 3 4 5 6 7 8 9 10 11 12 13 14 15 16 17 18 19 20 21 22 23 24 25 26 27 28 29 30 31 32
000
FTUS41 KCAR 020500
TAFBHB
TAF
KBHB 020520Z 0206/0306 00000KT P6SM BCFG FEW004
     FM020800 VRB03KT 3SM BR BKN002
     FM021000 VRB03KT 1/2SM FG OVC001
     FM021100 22007KT 3SM BR BKN001
     FM021300 22007KT P6SM FEW050 BKN200
      AMD LTD TO CLD VIS AND WIND=

USA.gov is the U.S. government's official web portal to all federal, state and local government web resources and services.